Terminal Aerodrome Forecast
Issued by NWS

Home | Current Version | Previous Version | Text Only | Print | Product List | Glossary Off
Versions: 1 2 3 4 5 6 7 8 9 10 11 12 13 14 15 16 17 18 19

000
FTUS43 KTOP 290500
TAFMHK
TAF
KMHK 290520Z 2906/3006 20004KT P6SM VCTS BKN080CB BKN150
      TEMPO 2908/2912 3SM -TSRA SCT015 OVC040CB
     FM291400 20007KT P6SM VCTS SCT035CB BKN110=

USA.gov is the U.S. government's official web portal to all federal, state and local government web resources and services.